Time;durP1;ratioP1;P1;durP2;ratioP2;P2;SDS_P1;SDS_P2;PMS_P1;PMS_P2;Temp;Humidity;BMP_temperature;BMP_pressure;BME280_temperature;BME280_humidity;BME280_pressure;Samples;Min_cycle;Max_cycle;Signal;HPM_P1;HPM_P2
2023/02/16 00:01:46;;;;;;;;;;;;;;;4.57;60.08;101074.94;5091324;28;19929;-42
2023/02/16 00:04:21;;;;;;;;;;;;;;;4.44;60.57;101063.78;5091458;28;19912;-42
2023/02/16 00:06:47;;;;;;;;;;;;;;;4.58;60.62;101068.69;5091503;28;19913;-40
2023/02/16 00:09:12;;;;;;;;;;;;;;;4.20;61.61;101067.53;5091526;28;19912;-41
2023/02/16 00:14:22;;;;;;;;;;;;;;;4.33;61.76;101071.78;5091586;28;20430;-41
2023/02/16 00:16:51;;;;;;;;;;;;;;;3.94;62.86;101071.50;5091985;28;19982;-41
2023/02/16 00:19:21;;;;;;;;;;;;;;;3.89;63.30;101078.00;5091370;28;19912;-41
2023/02/16 00:21:47;;;;;;;;;;;;;;;4.10;63.07;101074.53;5091377;28;20384;-41
2023/02/16 00:24:12;;;;;;;;;;;;;;;4.18;62.49;101064.19;5091502;28;20007;-43
2023/02/16 00:26:39;;;;;;;;;;;;;;;4.39;62.00;101058.88;5091380;28;20077;-42
2023/02/16 00:29:04;;;;;;;;;;;;;;;4.28;62.27;101059.81;5091119;28;19912;-42
2023/02/16 00:31:32;;;;;;;;;;;;;;;4.28;62.48;101057.19;5091356;28;19931;-42
2023/02/16 00:33:58;;;;;;;;;;;;;;;4.41;62.10;101053.50;5091460;28;19919;-42
2023/02/16 00:36:24;;;;;;;;;;;;;;;4.23;62.51;101062.00;5091367;28;19999;-41
2023/02/16 00:38:49;;;;;;;;;;;;;;;4.10;62.96;101053.47;5091477;28;20370;-41
2023/02/16 00:44:04;;;;;;;;;;;;;;;4.29;62.07;101056.22;5091615;28;20031;-41
2023/02/16 00:46:30;;;;;;;;;;;;;;;4.10;62.76;101053.47;5091371;28;19959;-41
2023/02/16 00:48:55;;;;;;;;;;;;;;;4.26;62.20;101058.25;5094933;28;19997;-42
2023/02/16 00:51:20;;;;;;;;;;;;;;;4.55;61.73;101066.34;5095672;28;19961;-41
2023/02/16 00:53:45;;;;;;;;;;;;;;;4.31;62.22;101064.00;5095452;28;19966;-41
2023/02/16 00:56:16;;;;;;;;;;;;;;;4.11;62.67;101058.63;5095408;28;19947;-42
2023/02/16 00:58:41;;;;;;;;;;;;;;;4.15;63.20;101050.44;5095442;28;19935;-41
2023/02/16 01:01:10;;;;;;;;;;;;;;;4.23;61.69;101054.09;5094984;28;20296;-41
2023/02/16 01:03:36;;;;;;;;;;;;;;;4.29;62.02;101058.84;5095145;28;19955;-42
2023/02/16 01:11:45;;;;;;;;;;;;;;;4.19;62.12;101051.84;5095356;28;20041;-42
2023/02/16 01:14:11;;;;;;;;;;;;;;;4.28;61.92;101049.28;5095257;28;19991;-42
2023/02/16 01:16:38;;;;;;;;;;;;;;;4.09;62.08;101051.78;5095217;28;19916;-42
2023/02/16 01:19:04;;;;;;;;;;;;;;;4.14;62.01;101044.34;5095037;28;20007;-41
2023/02/16 01:21:29;;;;;;;;;;;;;;;4.08;62.25;101047.50;5094814;28;19962;-41
2023/02/16 01:23:55;;;;;;;;;;;;;;;4.20;61.80;101049.06;5094750;28;19920;-41
2023/02/16 01:26:20;;;;;;;;;;;;;;;4.15;62.10;101046.03;5094276;28;20007;-41
2023/02/16 01:28:46;;;;;;;;;;;;;;;4.00;62.72;101047.28;5094461;28;20359;-42
2023/02/16 01:31:12;;;;;;;;;;;;;;;3.85;62.59;101052.06;5094289;28;19912;-42
2023/02/16 01:33:38;;;;;;;;;;;;;;;3.51;63.73;101050.41;5094304;28;19912;-41
2023/02/16 01:36:04;;;;;;;;;;;;;;;3.68;62.86;101042.91;5094514;28;19915;-42
2023/02/16 01:38:29;;;;;;;;;;;;;;;3.59;63.79;101044.50;5094425;28;19920;-41
2023/02/16 01:41:04;;;;;;;;;;;;;;;3.12;64.49;101044.78;5094552;28;19912;-41
2023/02/16 01:43:45;;;;;;;;;;;;;;;3.07;65.41;101046.13;5094749;28;19924;-41
2023/02/16 01:46:13;;;;;;;;;;;;;;;3.38;64.30;101046.28;5094679;28;20327;-42
2023/02/16 01:48:39;;;;;;;;;;;;;;;3.55;63.45;101044.91;5094583;28;19912;-41
2023/02/16 01:51:10;;;;;;;;;;;;;;;3.15;64.54;101048.97;5094185;28;19968;-42
2023/02/16 01:53:41;;;;;;;;;;;;;;;2.91;65.40;101047.34;5093874;28;19912;-40
2023/02/16 01:56:31;;;;;;;;;;;;;;;3.06;65.30;101042.63;5094052;28;19916;-41
2023/02/16 01:59:00;;;;;;;;;;;;;;;3.25;64.52;101049.06;5092647;28;19912;-41
2023/02/16 02:01:29;;;;;;;;;;;;;;;3.17;64.49;101046.22;5094095;28;19912;-40
2023/02/16 02:06:37;;;;;;;;;;;;;;;3.34;64.02;101048.31;5094346;28;19919;-41
2023/02/16 02:09:06;;;;;;;;;;;;;;;3.19;64.54;101049.56;5094104;28;19916;-42
2023/02/16 02:11:34;;;;;;;;;;;;;;;3.19;64.41;101049.56;5093877;28;20041;-41
2023/02/16 02:14:12;;;;;;;;;;;;;;;3.09;64.47;101049.47;5094121;28;19934;-41
2023/02/16 02:16:37;;;;;;;;;;;;;;;3.26;64.38;101048.94;5093280;28;20321;-41
2023/02/16 02:19:03;;;;;;;;;;;;;;;3.10;64.64;101045.84;5093873;28;19916;-41
2023/02/16 02:24:48;;;;;;;;;;;;;;;3.03;66.09;101037.63;5093770;28;20347;-42
2023/02/16 02:27:24;;;;;;;;;;;;;;;3.17;65.00;101040.94;5073365;28;19976;-41
2023/02/16 02:29:58;;;;;;;;;;;;;;;3.24;64.80;101042.13;5080151;28;19955;-41
2023/02/16 02:32:23;;;;;;;;;;;;;;;3.38;64.26;101043.63;5093654;28;19916;-41
2023/02/16 02:35:08;;;;;;;;;;;;;;;3.28;63.96;101047.00;5093562;28;19919;-42
2023/02/16 02:37:35;;;;;;;;;;;;;;;3.32;64.75;101048.44;5093585;28;19977;-40
2023/02/16 02:40:07;;;;;;;;;;;;;;;3.20;64.63;101044.19;5093311;28;19912;-40
2023/02/16 02:42:40;;;;;;;;;;;;;;;3.01;65.93;101042.19;5093452;28;19919;-41
2023/02/16 02:45:08;;;;;;;;;;;;;;;2.98;66.07;101052.09;5093297;28;19921;-41
2023/02/16 02:47:37;;;;;;;;;;;;;;;3.18;65.53;101058.38;5093319;28;19951;-42
2023/02/16 02:50:23;;;;;;;;;;;;;;;3.20;64.58;101059.97;5093326;28;19987;-42
2023/02/16 02:52:48;;;;;;;;;;;;;;;2.89;64.89;101066.81;5093028;28;20329;-41
2023/02/16 03:00:43;;;;;;;;;;;;;;;2.91;64.42;101059.63;5093261;28;19919;-42
2023/02/16 03:03:20;;;;;;;;;;;;;;;2.51;65.74;101055.72;5093091;28;20352;-41
2023/02/16 03:05:48;;;;;;;;;;;;;;;2.30;67.20;101058.22;5092900;28;19915;-41
2023/02/16 03:08:16;;;;;;;;;;;;;;;2.45;66.17;101064.06;5092764;28;19923;-40
2023/02/16 03:13:32;;;;;;;;;;;;;;;2.40;65.21;101050.47;5093158;28;20007;-41
2023/02/16 03:16:00;;;;;;;;;;;;;;;2.30;66.31;101060.84;5092513;28;20372;-41
2023/02/16 03:29:27;;;;;;;;;;;;;;;2.12;66.43;101049.94;5092941;28;19918;-41
2023/02/16 03:31:54;;;;;;;;;;;;;;;2.20;66.97;101059.03;5092422;28;19912;-41
2023/02/16 03:34:20;;;;;;;;;;;;;;;2.28;66.55;101049.59;5092576;28;20362;-41
2023/02/16 03:36:47;;;;;;;;;;;;;;;2.09;67.34;101044.09;5092698;28;20044;-41
2023/02/16 03:39:12;;;;;;;;;;;;;;;2.00;67.69;101044.78;5092203;28;20402;-42
2023/02/16 03:41:39;;;;;;;;;;;;;;;2.07;68.05;101040.75;5092460;28;19916;-41
2023/02/16 03:44:05;;;;;;;;;;;;;;;2.00;67.63;101048.25;5092332;28;19916;-42
2023/02/16 03:46:30;;;;;;;;;;;;;;;1.87;68.53;101044.88;5092489;28;19927;-41
2023/02/16 03:48:55;;;;;;;;;;;;;;;2.03;68.47;101042.75;5092165;28;19912;-42
2023/02/16 03:51:20;;;;;;;;;;;;;;;1.95;68.69;101035.47;5092038;28;19968;-41
2023/02/16 03:53:46;;;;;;;;;;;;;;;1.86;69.39;101037.94;5091856;28;19912;-41
2023/02/16 03:56:11;;;;;;;;;;;;;;;1.91;69.41;101041.06;5091820;28;19919;-41
2023/02/16 03:58:36;;;;;;;;;;;;;;;1.95;69.65;101032.00;5091993;28;19912;-40
2023/02/16 04:01:02;;;;;;;;;;;;;;;1.69;69.44;101044.47;5091444;28;19923;-42
2023/02/16 04:03:27;;;;;;;;;;;;;;;2.05;69.41;101037.41;5102811;28;20387;-41
2023/02/16 04:05:52;;;;;;;;;;;;;;;2.05;68.66;101038.22;5091991;28;19912;-42
2023/02/16 04:08:18;;;;;;;;;;;;;;;1.84;69.73;101035.44;5091326;28;19923;-42
2023/02/16 04:10:43;;;;;;;;;;;;;;;1.93;69.61;101040.00;5091739;28;19916;-42
2023/02/16 04:13:08;;;;;;;;;;;;;;;1.79;70.38;101042.84;5092012;28;19912;-42
2023/02/16 04:15:34;;;;;;;;;;;;;;;2.16;69.87;101037.41;5105792;28;19940;-42
2023/02/16 04:17:59;;;;;;;;;;;;;;;2.07;68.53;101043.38;5111724;28;19916;-42
2023/02/16 04:20:26;;;;;;;;;;;;;;;2.08;68.87;101039.81;5101045;28;19927;-47
2023/02/16 04:22:51;;;;;;;;;;;;;;;1.92;68.59;101038.34;5081603;28;20380;-46
2023/02/16 04:25:17;;;;;;;;;;;;;;;1.99;68.53;101045.75;5081126;28;19987;-46
2023/02/16 04:27:43;;;;;;;;;;;;;;;2.46;71.56;101043.91;5081915;28;19999;-47
2023/02/16 04:30:14;;;;;;;;;;;;;;;2.35;67.59;101040.31;5083777;28;19916;-47
2023/02/16 04:32:40;;;;;;;;;;;;;;;2.85;65.01;101046.97;5084905;28;19916;-47
2023/02/16 04:35:06;;;;;;;;;;;;;;;3.69;80.25;101052.47;5079839;28;19920;-47
2023/02/16 04:37:31;;;;;;;;;;;;;;;5.04;79.16;101053.28;5075326;28;19923;-47
2023/02/16 04:39:56;;;;;;;;;;;;;;;5.91;70.23;101054.34;5070988;28;19982;-47
2023/02/16 04:42:22;;;;;;;;;;;;;;;5.90;67.86;101048.19;5071001;28;20024;-47
2023/02/16 04:44:47;;;;;;;;;;;;;;;6.35;63.45;101044.94;5070645;28;20301;-47
2023/02/16 04:47:12;;;;;;;;;;;;;;;5.94;59.76;101054.88;5071009;28;20323;-47
2023/02/16 04:49:37;;;;;;;;;;;;;;;5.90;63.37;101052.66;5071020;28;19920;-47
2023/02/16 04:52:03;;;;;;;;;;;;;;;5.76;55.75;101060.03;5089119;28;19947;-47
2023/02/16 04:54:31;;;;;;;;;;;;;;;5.16;58.72;101062.78;5090468;28;20330;-47
2023/02/16 04:56:57;;;;;;;;;;;;;;;4.56;57.55;101065.34;5090375;28;20030;-47
2023/02/16 04:59:22;;;;;;;;;;;;;;;3.65;60.32;101065.06;5090300;28;20405;-47
2023/02/16 05:01:48;;;;;;;;;;;;;;;3.26;62.10;101072.63;5090390;28;19919;-47
2023/02/16 05:04:14;;;;;;;;;;;;;;;2.46;64.30;101071.00;5090393;28;19920;-47
2023/02/16 05:06:39;;;;;;;;;;;;;;;2.06;66.16;101070.59;5090700;28;19916;-46
2023/02/16 05:09:05;;;;;;;;;;;;;;;2.28;65.82;101069.78;5090145;28;20003;-47
2023/02/16 05:14:45;;;;;;;;;;;;;;;2.01;66.09;101076.19;5089943;28;19938;-46
2023/02/16 05:17:15;;;;;;;;;;;;;;;1.84;66.98;101069.56;5089785;28;19931;-47
2023/02/16 05:19:41;;;;;;;;;;;;;;;1.87;67.22;101079.84;5089831;28;20317;-47
2023/02/16 05:22:09;;;;;;;;;;;;;;;1.75;68.31;101071.09;5089915;28;19943;-46
2023/02/16 05:24:34;;;;;;;;;;;;;;;1.74;69.52;101079.09;5089473;28;19955;-47
2023/02/16 05:27:01;;;;;;;;;;;;;;;1.73;67.94;101073.00;5090152;28;20503;-47
2023/02/16 05:29:26;;;;;;;;;;;;;;;1.71;67.97;101072.28;5090320;28;19919;-46
2023/02/16 05:31:51;;;;;;;;;;;;;;;1.56;68.30;101089.13;5090045;28;20302;-46
2023/02/16 05:34:17;;;;;;;;;;;;;;;3.21;85.01;101095.81;5090597;28;19999;-46
2023/02/16 05:36:42;;;;;;;;;;;;;;;3.33;64.54;101089.59;5093379;28;20288;-46
2023/02/16 05:39:07;;;;;;;;;;;;;;;3.17;63.28;101097.03;5093831;28;19912;-47
2023/02/16 05:41:32;;;;;;;;;;;;;;;2.84;64.00;101093.47;5093813;28;20395;-47
2023/02/16 05:43:59;;;;;;;;;;;;;;;3.36;69.38;101103.44;5094014;28;19923;-48
2023/02/16 05:46:26;;;;;;;;;;;;;;;3.36;64.20;101101.66;5094034;28;19912;-42
2023/02/16 05:48:51;;;;;;;;;;;;;;;3.52;62.47;101103.88;5093872;28;20035;-43
2023/02/16 05:51:17;;;;;;;;;;;;;;;3.50;62.01;101101.38;5093611;28;19947;-41
2023/02/16 05:53:43;;;;;;;;;;;;;;;3.14;62.54;101102.53;5094057;28;19912;-42
2023/02/16 05:56:08;;;;;;;;;;;;;;;3.15;63.30;101109.47;5093276;28;19919;-42
2023/02/16 05:58:34;;;;;;;;;;;;;;;3.13;62.89;101108.75;5093176;28;19966;-43
2023/02/16 06:00:59;;;;;;;;;;;;;;;2.80;64.55;101101.72;5093518;28;19998;-42
2023/02/16 06:03:25;;;;;;;;;;;;;;;2.80;64.54;101101.72;5093375;28;19966;-41
2023/02/16 06:05:54;;;;;;;;;;;;;;;2.69;65.32;101108.66;5093787;28;19938;-41
2023/02/16 06:08:20;;;;;;;;;;;;;;;2.98;65.31;101109.97;5087175;28;19931;-41
2023/02/16 06:10:45;;;;;;;;;;;;;;;3.27;64.24;101107.66;5077626;28;20012;-41
2023/02/16 06:13:11;;;;;;;;;;;;;;;3.26;63.80;101106.00;5073441;28;19969;-42
2023/02/16 06:15:36;;;;;;;;;;;;;;;3.60;62.75;101116.41;5073408;28;19912;-42
2023/02/16 06:18:02;;;;;;;;;;;;;;;3.90;62.32;101119.19;5073167;28;20050;-41
2023/02/16 06:20:27;;;;;;;;;;;;;;;4.00;62.33;101121.03;5073559;28;19912;-41
2023/02/16 06:22:52;;;;;;;;;;;;;;;4.22;61.13;101118.28;5073255;28;19968;-41
2023/02/16 06:25:19;;;;;;;;;;;;;;;4.59;60.09;101117.84;5073340;28;19913;-42
2023/02/16 06:27:44;;;;;;;;;;;;;;;4.88;58.94;101115.31;5073182;28;19917;-42
2023/02/16 06:30:11;;;;;;;;;;;;;;;5.01;58.36;101124.81;5073525;28;20269;-42
2023/02/16 06:32:36;;;;;;;;;;;;;;;5.38;58.01;101126.88;5073340;28;20088;-42
2023/02/16 06:35:01;;;;;;;;;;;;;;;6.06;56.35;101124.31;5073317;28;20002;-42
2023/02/16 06:37:26;;;;;;;;;;;;;;;6.24;55.13;101119.97;5073032;28;20350;-42
2023/02/16 06:39:52;;;;;;;;;;;;;;;6.57;54.83;101123.09;5072873;28;19912;-42
2023/02/16 06:42:17;;;;;;;;;;;;;;;6.89;53.30;101118.38;5073180;28;19916;-41
2023/02/16 06:44:43;;;;;;;;;;;;;;;7.06;52.81;101130.84;5072438;28;19916;-41
2023/02/16 06:47:09;;;;;;;;;;;;;;;7.15;52.32;101126.50;5072411;28;20363;-41
2023/02/16 06:49:34;;;;;;;;;;;;;;;7.32;51.89;101132.81;5072460;28;19912;-42
2023/02/16 06:51:59;;;;;;;;;;;;;;;7.26;51.21;101133.41;5072591;28;19913;-42
2023/02/16 06:54:25;;;;;;;;;;;;;;;7.42;51.47;101129.13;5072428;28;20273;-42
2023/02/16 06:56:50;;;;;;;;;;;;;;;7.89;50.29;101143.16;5072797;28;20380;-42
2023/02/16 06:59:15;;;;;;;;;;;;;;;8.31;49.08;101138.03;5072392;28;19966;-42
2023/02/16 07:01:40;;;;;;;;;;;;;;;8.46;47.99;101141.00;5072001;28;19920;-40
2023/02/16 07:04:06;;;;;;;;;;;;;;;8.49;47.98;101143.34;5093645;28;20440;-42
2023/02/16 07:06:31;;;;;;;;;;;;;;;8.52;48.15;101140.38;5093142;28;19912;-41
2023/02/16 07:08:57;;;;;;;;;;;;;;;8.51;48.12;101141.38;5090825;28;19912;-41
2023/02/16 07:11:23;;;;;;;;;;;;;;;8.78;48.21;101145.69;5092085;28;19912;-41
2023/02/16 07:13:48;;;;;;;;;;;;;;;8.87;47.40;101143.06;5092120;28;19965;-42
2023/02/16 07:16:14;;;;;;;;;;;;;;;9.33;46.19;101139.13;5081081;28;19923;-41
2023/02/16 07:18:39;;;;;;;;;;;;;;;8.74;46.46;101115.13;5078683;28;20299;-42
2023/02/16 07:21:05;;;;;;;;;;;;;;;8.91;46.91;101137.28;5079988;28;19916;-41
2023/02/16 07:23:30;;;;;;;;;;;;;;;9.33;47.06;101148.91;5079945;28;20472;-41
2023/02/16 07:25:56;;;;;;;;;;;;;;;9.88;45.32;101143.06;5077849;28;19912;-42
2023/02/16 07:28:21;;;;;;;;;;;;;;;10.14;44.11;101150.88;5089669;28;20364;-41
2023/02/16 07:30:46;;;;;;;;;;;;;;;9.98;44.77;101143.72;5090910;28;19959;-42
2023/02/16 07:33:13;;;;;;;;;;;;;;;9.98;44.14;101143.72;5091435;28;19912;-41
2023/02/16 07:35:38;;;;;;;;;;;;;;;9.95;44.27;101136.06;5091511;28;20002;-41
2023/02/16 07:38:04;;;;;;;;;;;;;;;10.30;43.88;101136.78;5091845;28;20015;-41
2023/02/16 07:40:30;;;;;;;;;;;;;;;10.65;42.59;101136.56;5091496;28;19912;-41
2023/02/16 07:42:58;;;;;;;;;;;;;;;10.82;42.69;101132.84;5091239;28;19920;-41
2023/02/16 07:45:23;;;;;;;;;;;;;;;10.39;42.79;101137.56;5090558;28;19989;-42
2023/02/16 07:47:48;;;;;;;;;;;;;;;10.48;42.68;101136.56;5091053;28;20611;-41
2023/02/16 07:50:13;;;;;;;;;;;;;;;10.48;42.89;101131.25;5091209;28;19915;-41
2023/02/16 07:52:39;;;;;;;;;;;;;;;10.22;43.14;101134.06;5091273;28;19912;-42
2023/02/16 07:55:04;;;;;;;;;;;;;;;10.72;42.46;101141.03;5090850;28;20430;-36
2023/02/16 07:57:29;;;;;;;;;;;;;;;10.88;41.68;101142.81;5090140;28;19916;-36
2023/02/16 07:59:55;;;;;;;;;;;;;;;10.55;42.44;101140.22;5090396;28;20057;-36
2023/02/16 08:02:21;;;;;;;;;;;;;;;10.06;43.54;101144.72;5090822;28;19928;-36
2023/02/16 08:04:47;;;;;;;;;;;;;;;10.35;42.58;101142.41;5091512;28;19961;-36
2023/02/16 08:07:13;;;;;;;;;;;;;;;10.33;42.11;101135.59;5091416;28;19934;-36
2023/02/16 08:09:39;;;;;;;;;;;;;;;10.51;42.51;101138.91;5090404;28;19978;-36
2023/02/16 08:12:07;;;;;;;;;;;;;;;10.62;41.90;101145.69;5090780;28;19929;-36
2023/02/16 08:14:32;;;;;;;;;;;;;;;11.18;40.58;101145.69;5090222;28;20005;-35
2023/02/16 08:16:57;;;;;;;;;;;;;;;11.41;40.46;101143.09;5088927;28;20388;-36
2023/02/16 08:19:22;;;;;;;;;;;;;;;11.02;41.21;101143.91;5089216;28;19952;-36
2023/02/16 08:21:48;;;;;;;;;;;;;;;10.72;41.96;101145.53;5089556;28;20386;-36
2023/02/16 08:24:13;;;;;;;;;;;;;;;11.24;41.97;101139.66;5089393;28;19923;-36
2023/02/16 08:26:40;;;;;;;;;;;;;;;11.45;40.77;101141.72;5090664;28;19912;-37
2023/02/16 08:29:08;;;;;;;;;;;;;;;11.84;40.19;101151.50;5090704;28;19912;-37
2023/02/16 08:31:35;;;;;;;;;;;;;;;11.80;39.62;101141.34;5090410;28;19920;-35
2023/02/16 08:34:01;;;;;;;;;;;;;;;11.60;40.14;101144.47;5089792;28;20566;-36
2023/02/16 08:36:31;;;;;;;;;;;;;;;11.93;38.31;101137.09;5089614;28;20003;-37
2023/02/16 08:38:57;;;;;;;;;;;;;;;12.68;36.48;101138.13;5089330;28;20432;-38
2023/02/16 08:41:27;;;;;;;;;;;;;;;12.89;36.27;101140.06;5090868;28;19916;-36
2023/02/16 08:43:53;;;;;;;;;;;;;;;12.49;36.65;101139.47;5090586;28;20010;-37
2023/02/16 08:46:18;;;;;;;;;;;;;;;12.84;36.11;101131.75;5090671;28;20280;-36
2023/02/16 08:48:44;;;;;;;;;;;;;;;12.84;36.17;101131.75;5090691;28;19916;-36
2023/02/16 08:51:17;;;;;;;;;;;;;;;12.50;36.03;101135.78;5091174;28;19912;-36
2023/02/16 08:53:43;;;;;;;;;;;;;;;12.30;36.69;101134.66;5090757;28;19934;-35
2023/02/16 08:56:09;;;;;;;;;;;;;;;12.37;36.53;101124.06;5090614;28;19912;-36
2023/02/16 08:58:36;;;;;;;;;;;;;;;12.68;36.26;101130.09;5090230;28;19963;-37
2023/02/16 09:01:05;;;;;;;;;;;;;;;12.68;36.64;101121.25;5090450;28;20307;-36
2023/02/16 09:03:31;;;;;;;;;;;;;;;12.47;36.52;101111.28;5090518;28;20437;-38
2023/02/16 09:05:59;;;;;;;;;;;;;;;11.97;37.17;101097.56;5090299;28;19916;-36
2023/02/16 09:08:25;;;;;;;;;;;;;;;12.75;36.34;101122.16;5091419;28;19912;-37
2023/02/16 09:10:50;;;;;;;;;;;;;;;12.61;36.26;101120.34;5094380;28;19969;-37
2023/02/16 09:13:15;;;;;;;;;;;;;;;13.10;36.27;101120.59;5094640;28;19970;-37
2023/02/16 09:15:44;;;;;;;;;;;;;;;13.04;36.47;101113.31;5094141;28;19935;-37
2023/02/16 09:18:11;;;;;;;;;;;;;;;13.62;35.30;101112.56;5094283;28;19917;-37
2023/02/16 09:20:40;;;;;;;;;;;;;;;13.73;34.26;101109.38;5094126;28;20021;-38
2023/02/16 09:23:06;;;;;;;;;;;;;;;13.52;35.08;101110.22;5094193;28;20004;-37
2023/02/16 09:25:35;;;;;;;;;;;;;;;13.22;35.47;101109.41;5094223;28;19919;-37
2023/02/16 09:28:00;;;;;;;;;;;;;;;12.64;36.85;101104.78;5094435;28;19912;-36
2023/02/16 09:30:26;;;;;;;;;;;;;;;12.74;36.52;101098.31;5093876;28;20417;-37
2023/02/16 09:32:51;;;;;;;;;;;;;;;12.77;36.55;101103.28;5094315;28;20002;-36
2023/02/16 09:35:17;;;;;;;;;;;;;;;12.84;36.37;101074.84;5094273;28;19912;-37
2023/02/16 09:37:42;;;;;;;;;;;;;;;13.25;36.04;101095.66;5094183;28;20384;-36
2023/02/16 09:40:10;;;;;;;;;;;;;;;13.14;35.75;101091.66;5094091;28;20402;-37
2023/02/16 09:42:49;;;;;;;;;;;;;;;13.47;35.33;101092.03;5094419;28;20001;-36
2023/02/16 09:45:16;;;;;;;;;;;;;;;13.15;35.87;101092.47;5094028;28;20334;-36
2023/02/16 09:47:46;;;;;;;;;;;;;;;13.23;35.75;101089.69;5094096;28;19919;-36
2023/02/16 09:50:19;;;;;;;;;;;;;;;12.81;36.69;101080.53;5093503;28;19912;-39
2023/02/16 09:52:47;;;;;;;;;;;;;;;12.86;36.63;101086.97;5093810;28;20395;-36
2023/02/16 09:55:14;;;;;;;;;;;;;;;12.64;36.82;101080.75;5093863;28;19947;-36
2023/02/16 09:57:57;;;;;;;;;;;;;;;11.86;38.85;101088.13;5093623;28;19916;-37
2023/02/16 10:00:23;;;;;;;;;;;;;;;12.56;37.50;101091.50;5093385;28;19942;-36
2023/02/16 10:03:01;;;;;;;;;;;;;;;12.45;37.85;101074.09;5093467;28;19916;-36
2023/02/16 10:05:49;;;;;;;;;;;;;;;11.77;38.85;101049.19;5093478;28;20059;-36
2023/02/16 10:08:21;;;;;;;;;;;;;;;11.90;38.79;101065.44;5093710;28;19916;-37
2023/02/16 10:10:49;;;;;;;;;;;;;;;12.20;38.18;101059.34;5093509;28;19912;-36
2023/02/16 10:13:21;;;;;;;;;;;;;;;12.83;37.06;101059.81;5093047;28;20379;-37
2023/02/16 10:15:48;;;;;;;;;;;;;;;12.75;37.11;101057.25;5092844;28;19969;-35
2023/02/16 10:18:43;;;;;;;;;;;;;;;13.21;36.28;101059.63;5092821;28;20307;-37
2023/02/16 10:21:14;;;;;;;;;;;;;;;13.49;35.93;101049.06;5087516;28;19931;-37
2023/02/16 10:23:42;;;;;;;;;;;;;;;13.49;35.65;101049.06;5092874;28;20020;-37
2023/02/16 10:26:29;;;;;;;;;;;;;;;13.58;35.66;101050.59;5093056;28;19915;-36
2023/02/16 10:28:56;;;;;;;;;;;;;;;13.77;35.45;101045.63;5093047;28;19916;-36
2023/02/16 10:31:30;;;;;;;;;;;;;;;13.57;35.54;101040.09;5092972;28;19930;-35
2023/02/16 10:34:16;;;;;;;;;;;;;;;13.47;35.49;101040.41;5092454;28;19912;-35
2023/02/16 10:37:00;;;;;;;;;;;;;;;13.58;35.49;101037.22;5092464;28;20001;-36
2023/02/16 10:39:30;;;;;;;;;;;;;;;13.68;35.11;101035.03;5092506;28;19964;-36
2023/02/16 10:42:11;;;;;;;;;;;;;;;13.63;34.71;101031.28;5092024;28;19916;-37
2023/02/16 10:44:40;;;;;;;;;;;;;;;13.41;34.95;101027.81;5090414;28;20351;-37
2023/02/16 10:47:10;;;;;;;;;;;;;;;13.41;34.96;101030.47;5092747;28;20033;-35
2023/02/16 10:49:36;;;;;;;;;;;;;;;13.76;35.09;101020.69;5092620;28;20315;-38
2023/02/16 10:52:02;;;;;;;;;;;;;;;13.79;34.39;101023.00;5091238;28;19912;-37
2023/02/16 10:54:29;;;;;;;;;;;;;;;13.75;34.96;101019.06;5092147;28;19920;-36
2023/02/16 10:56:59;;;;;;;;;;;;;;;14.02;34.08;101017.41;5092451;28;19920;-35
2023/02/16 10:59:42;;;;;;;;;;;;;;;14.18;33.75;101012.78;5092753;28;19959;-36
2023/02/16 11:02:18;;;;;;;;;;;;;;;14.05;34.08;101006.31;5091515;28;19912;-37
2023/02/16 11:04:45;;;;;;;;;;;;;;;13.92;34.21;100998.22;5091520;28;20425;-37
2023/02/16 11:07:11;;;;;;;;;;;;;;;13.34;34.86;101000.19;5091841;28;19934;-36
2023/02/16 11:09:38;;;;;;;;;;;;;;;13.57;34.50;100992.75;5091472;28;19993;-36
2023/02/16 11:12:14;;;;;;;;;;;;;;;13.86;34.36;100990.97;5091713;28;20374;-37
2023/02/16 11:14:46;;;;;;;;;;;;;;;14.12;33.61;100992.97;5091425;28;20384;-37
2023/02/16 11:17:13;;;;;;;;;;;;;;;13.81;34.41;100980.00;5091737;28;19922;-38
2023/02/16 11:19:40;;;;;;;;;;;;;;;14.19;34.25;100977.78;5091981;28;20330;-37
2023/02/16 11:22:06;;;;;;;;;;;;;;;13.92;33.76;100974.13;5091475;28;19959;-36
2023/02/16 11:24:32;;;;;;;;;;;;;;;14.14;33.30;100966.00;5091918;28;19971;-36
2023/02/16 11:27:02;;;;;;;;;;;;;;;13.92;33.88;100962.56;5092524;28;20045;-38
2023/02/16 11:29:28;;;;;;;;;;;;;;;13.94;34.09;100963.22;5091980;28;19926;-37
2023/02/16 11:31:54;;;;;;;;;;;;;;;14.41;33.12;100959.78;5091558;28;19915;-37
2023/02/16 11:34:36;;;;;;;;;;;;;;;14.38;33.10;100967.38;5092024;28;20333;-38
2023/02/16 11:37:06;;;;;;;;;;;;;;;14.28;33.20;100955.19;5091520;28;20307;-37
2023/02/16 11:39:36;;;;;;;;;;;;;;;13.96;33.56;100945.94;5091155;28;20380;-36
2023/02/16 11:42:04;;;;;;;;;;;;;;;13.88;33.93;100946.94;5091614;28;19922;-37
2023/02/16 11:44:30;;;;;;;;;;;;;;;14.15;33.84;100939.06;5091498;28;19924;-38
2023/02/16 11:46:56;;;;;;;;;;;;;;;13.97;34.55;100939.56;5091373;28;20225;-37
2023/02/16 11:49:29;;;;;;;;;;;;;;;14.16;34.14;100937.19;5091153;28;19999;-37
2023/02/16 11:51:54;;;;;;;;;;;;;;;14.67;33.36;100934.16;5091304;28;19916;-36
2023/02/16 11:54:20;;;;;;;;;;;;;;;14.13;33.45;100934.94;5091093;28;19912;-36
2023/02/16 11:57:00;;;;;;;;;;;;;;;14.13;33.00;100929.56;5091101;28;19976;-38
2023/02/16 11:59:34;;;;;;;;;;;;;;;14.33;33.16;100919.75;5091031;28;19964;-37
2023/02/16 12:02:08;;;;;;;;;;;;;;;14.27;33.51;100920.56;5091170;28;20257;-37
2023/02/16 12:04:52;;;;;;;;;;;;;;;14.68;32.87;100921.56;5091065;28;19912;-37
2023/02/16 12:07:26;;;;;;;;;;;;;;;14.58;32.51;100919.28;5091382;28;19912;-36
2023/02/16 12:10:00;;;;;;;;;;;;;;;14.02;33.85;100914.91;5091162;28;19923;-36
2023/02/16 12:12:25;;;;;;;;;;;;;;;13.72;34.37;100911.63;5091423;28;19912;-37
2023/02/16 12:14:53;;;;;;;;;;;;;;;13.73;33.67;100900.72;5091272;28;19919;-37
2023/02/16 12:17:26;;;;;;;;;;;;;;;13.63;34.61;100901.09;5091259;28;20299;-37
2023/02/16 12:20:13;;;;;;;;;;;;;;;13.77;34.21;100901.16;5090847;28;19961;-37
2023/02/16 12:22:38;;;;;;;;;;;;;;;13.83;33.56;100895.03;5091046;28;20155;-37
2023/02/16 12:25:03;;;;;;;;;;;;;;;13.71;33.71;100891.22;5090864;28;19978;-37
2023/02/16 12:27:48;;;;;;;;;;;;;;;14.16;34.08;100884.47;5091077;28;19912;-37
2023/02/16 12:30:18;;;;;;;;;;;;;;;14.44;33.45;100887.06;5090817;28;19912;-37
2023/02/16 12:32:56;;;;;;;;;;;;;;;13.81;34.07;100881.84;5090917;28;20122;-37
2023/02/16 12:35:30;;;;;;;;;;;;;;;13.45;34.80;100879.34;5090317;28;20405;-36
2023/02/16 12:38:15;;;;;;;;;;;;;;;13.85;34.06;100866.22;5090296;28;20279;-37
2023/02/16 12:40:55;;;;;;;;;;;;;;;15.31;31.86;100867.66;5090012;28;19943;-37
2023/02/16 12:43:37;;;;;;;;;;;;;;;14.52;33.51;100864.63;5093375;28;19928;-38
2023/02/16 12:46:12;;;;;;;;;;;;;;;14.64;32.78;100865.72;5097715;28;19962;-36
2023/02/16 12:48:41;;;;;;;;;;;;;;;13.98;33.80;100849.41;5097532;28;19912;-37
2023/02/16 12:51:27;;;;;;;;;;;;;;;14.83;32.88;100856.09;5097600;28;19912;-37
2023/02/16 12:53:53;;;;;;;;;;;;;;;15.50;31.07;100847.16;5097447;28;19916;-38
2023/02/16 12:56:23;;;;;;;;;;;;;;;15.35;31.96;100847.41;5097515;28;19912;-38
2023/02/16 12:58:52;;;;;;;;;;;;;;;15.33;31.41;100836.91;5097503;28;20292;-37
2023/02/16 13:01:35;;;;;;;;;;;;;;;15.23;31.67;100834.63;5097564;28;20008;-37
2023/02/16 13:04:22;;;;;;;;;;;;;;;15.88;30.97;100833.91;5097674;28;19952;-37
2023/02/16 13:07:01;;;;;;;;;;;;;;;15.40;31.29;100810.06;5097713;28;19970;-37
2023/02/16 13:09:48;;;;;;;;;;;;;;;15.20;30.79;100840.41;5097343;28;19912;-37
2023/02/16 13:12:14;;;;;;;;;;;;;;;15.27;31.16;100821.66;5097416;28;20417;-38
2023/02/16 13:14:41;;;;;;;;;;;;;;;15.18;31.98;100825.56;5096989;28;19912;-36
2023/02/16 13:17:15;;;;;;;;;;;;;;;14.80;31.80;100823.50;5096739;28;19959;-35
2023/02/16 13:19:41;;;;;;;;;;;;;;;15.41;31.71;100822.44;5096993;28;19912;-36
2023/02/16 13:22:13;;;;;;;;;;;;;;;15.12;31.43;100816.50;5097442;28;19912;-38
2023/02/16 13:24:45;;;;;;;;;;;;;;;14.90;31.87;100813.19;5097205;28;20006;-38
2023/02/16 13:27:10;;;;;;;;;;;;;;;14.99;31.99;100819.19;5097510;28;19940;-37
2023/02/16 13:29:38;;;;;;;;;;;;;;;15.12;31.75;100813.81;5097469;28;20324;-36